createdAt,value
2016-06-14T00:00:42.850Z,16.01
2016-06-14T00:01:43.041Z,16.04
2016-06-14T00:02:43.076Z,15.98
2016-06-14T00:03:43.109Z,16.02
2016-06-14T00:04:43.144Z,15.94
2016-06-14T00:05:43.224Z,15.97
2016-06-14T00:06:43.228Z,15.91
2016-06-14T00:07:43.262Z,15.86
2016-06-14T00:08:43.297Z,15.82
2016-06-14T00:09:43.331Z,15.8
2016-06-14T00:10:43.365Z,15.83
2016-06-14T00:11:43.399Z,15.83
2016-06-14T00:12:43.450Z,15.82
2016-06-14T00:13:43.484Z,15.83
2016-06-14T00:14:44.049Z,15.75
2016-06-14T00:15:43.584Z,15.73
2016-06-14T00:16:43.289Z,15.72
2016-06-14T00:17:43.622Z,15.68
2016-06-14T00:18:43.671Z,15.67
2016-06-14T00:19:43.706Z,15.7
2016-06-14T00:20:43.584Z,15.64
2016-06-14T00:21:43.774Z,15.64
2016-06-14T00:22:43.808Z,15.61
2016-06-14T00:23:43.858Z,15.55
2016-06-14T00:24:43.893Z,15.62
2016-06-14T00:25:43.911Z,15.67
2016-06-14T00:26:43.805Z,15.7
2016-06-14T00:27:43.995Z,15.73
2016-06-14T00:28:44.030Z,15.61
2016-06-14T00:29:44.174Z,15.73
2016-06-14T00:30:44.098Z,15.75
2016-06-14T00:31:43.976Z,15.73
2016-06-14T00:32:44.183Z,15.68
2016-06-14T00:33:44.061Z,15.77
2016-06-14T00:34:44.251Z,15.75
2016-06-14T00:35:44.286Z,15.79
2016-06-14T00:36:44.320Z,15.77
2016-06-14T00:37:44.370Z,15.64
2016-06-14T00:38:44.404Z,15.68
2016-06-14T00:39:44.657Z,15.65
2016-06-14T00:40:44.474Z,15.67
2016-06-14T00:41:58.666Z,15.8
2016-06-14T00:42:44.541Z,15.76
2016-06-14T00:43:44.577Z,15.67
2016-06-14T00:44:45.205Z,15.68
2016-06-14T00:45:44.660Z,15.68
2016-06-14T00:46:44.539Z,15.7
2016-06-14T00:47:44.728Z,15.8
2016-06-14T00:48:44.763Z,15.79
2016-06-14T00:49:44.798Z,15.75
2016-06-14T00:50:44.848Z,15.67
2016-06-14T00:51:44.882Z,15.73
2016-06-14T00:52:44.916Z,15.73
2016-06-14T00:53:44.950Z,15.76
2016-06-14T00:54:44.986Z,15.79
2016-06-14T00:55:45.019Z,15.83
2016-06-14T00:56:44.898Z,15.73
2016-06-14T00:57:45.104Z,15.7
2016-06-14T00:58:59.532Z,15.8
2016-06-14T00:59:45.844Z,15.75
2016-06-14T01:00:45.207Z,15.68
2016-06-14T01:01:45.100Z,15.77
2016-06-14T01:02:45.275Z,15.8
2016-06-14T01:03:45.325Z,15.82
2016-06-14T01:04:45.359Z,15.88
2016-06-14T01:05:45.395Z,15.84
2016-06-14T01:06:45.287Z,15.86
2016-06-14T01:07:45.463Z,15.82
2016-06-14T01:08:45.512Z,15.84
2016-06-14T01:09:45.390Z,15.79
2016-06-14T01:10:45.566Z,15.79
2016-06-14T01:11:45.616Z,15.86
2016-06-14T01:12:45.649Z,15.68
2016-06-14T01:13:45.684Z,15.76
2016-06-14T01:14:45.890Z,15.65
2016-06-14T01:15:45.768Z,15.7
2016-06-14T01:16:45.802Z,15.65
2016-06-14T01:17:45.837Z,15.7
2016-06-14T01:18:45.872Z,15.68
2016-06-14T01:19:45.921Z,15.7
2016-06-14T01:20:45.940Z,15.68
2016-06-14T01:21:45.974Z,15.77
2016-06-14T01:22:46.009Z,15.7
2016-06-14T01:23:46.058Z,15.7
2016-06-14T01:24:46.092Z,15.79
2016-06-14T01:25:46.127Z,15.88
2016-06-14T01:26:46.177Z,15.91
2016-06-14T01:27:46.399Z,15.9
2016-06-14T01:28:46.246Z,15.9
2016-06-14T01:29:47.077Z,15.9
2016-06-14T01:30:46.158Z,15.95
2016-06-14T01:31:46.349Z,15.82
2016-06-14T01:32:46.398Z,15.91
2016-06-14T01:33:46.433Z,15.84
2016-06-14T01:34:46.467Z,15.79
2016-06-14T01:35:46.501Z,15.7
2016-06-14T01:36:46.536Z,15.79
2016-06-14T01:37:46.570Z,15.86
2016-06-14T01:38:46.620Z,15.84
2016-06-14T01:39:46.655Z,15.84
2016-06-14T01:40:46.689Z,15.88
2016-06-14T01:41:46.707Z,15.84
2016-06-14T01:42:46.758Z,15.95
2016-06-14T01:43:46.807Z,15.91
2016-06-14T01:44:47.014Z,16.01
2016-06-14T01:45:46.704Z,16.08
2016-06-14T01:46:46.895Z,16
2016-06-14T01:47:46.930Z,16.02
2016-06-14T01:48:46.979Z,16.08
2016-06-14T01:49:47.013Z,16.1
2016-06-14T01:50:47.047Z,16.09
2016-06-14T01:51:47.082Z,16.09
2016-06-14T01:52:47.116Z,16.08
2016-06-14T01:53:47.167Z,16.23
2016-06-14T01:54:47.044Z,16.01
2016-06-14T01:55:47.235Z,15.98
2016-06-14T01:56:47.269Z,15.94
2016-06-14T01:57:47.304Z,15.97
2016-06-14T01:58:47.338Z,16.04
2016-06-14T01:59:47.278Z,16.09
2016-06-14T02:00:47.266Z,16.15
2016-06-14T02:01:47.300Z,16.17
2016-06-14T02:02:47.490Z,16.24
2016-06-14T02:03:47.556Z,16.15
2016-06-14T02:05:47.718Z,16.09
2016-06-14T02:08:15.994Z,15.95
2016-06-14T02:08:47.713Z,15.98
2016-06-14T02:09:47.747Z,15.98
2016-06-14T02:10:47.781Z,15.92
2016-06-14T02:11:47.815Z,15.88
2016-06-14T02:12:47.850Z,15.9
2016-06-14T02:13:47.899Z,15.83
2016-06-14T02:14:48.013Z,15.82
2016-06-14T02:15:47.968Z,15.72
2016-06-14T02:16:48.018Z,15.84
2016-06-14T02:17:48.036Z,15.77
2016-06-14T02:18:48.087Z,15.86
2016-06-14T02:19:48.136Z,15.77
2016-06-14T02:20:48.170Z,15.8
2016-06-14T02:21:48.206Z,15.79
2016-06-14T02:22:48.239Z,15.88
2016-06-14T02:23:48.118Z,15.77
2016-06-14T02:24:48.152Z,15.73
2016-06-14T02:25:48.343Z,15.75
2016-06-14T02:26:48.377Z,15.68
2016-06-14T02:27:48.411Z,15.67
2016-06-14T02:28:48.445Z,15.64
2016-06-14T02:29:48.542Z,15.76
2016-06-14T02:30:48.514Z,15.75
2016-06-14T02:31:48.548Z,15.79
2016-06-14T02:32:48.598Z,15.82
2016-06-14T02:33:48.632Z,15.79
2016-06-14T02:34:48.668Z,15.79
2016-06-14T02:35:48.702Z,15.86
2016-06-14T02:36:48.751Z,15.9
2016-06-14T02:37:48.786Z,15.84
2016-06-14T02:38:48.820Z,15.86
2016-06-14T02:39:48.854Z,15.77
2016-06-14T02:40:48.889Z,15.75
2016-06-14T02:41:48.923Z,15.79
2016-06-14T02:42:48.818Z,15.86
2016-06-14T02:43:49.007Z,15.75
2016-06-14T02:44:49.620Z,15.67
2016-06-14T02:45:49.077Z,15.64
2016-06-14T02:46:49.110Z,15.62
2016-06-14T02:47:49.145Z,15.68
2016-06-14T02:48:49.195Z,15.64
2016-06-14T02:49:49.229Z,15.67
2016-06-14T02:50:49.263Z,15.72
2016-06-14T02:51:49.298Z,15.59
2016-06-14T02:52:49.348Z,15.57
2016-06-14T02:53:49.460Z,15.67
2016-06-14T02:54:49.525Z,15.65
2016-06-14T02:55:49.278Z,15.65
2016-06-14T02:56:49.486Z,15.64
2016-06-14T02:57:49.644Z,15.67
2016-06-14T02:58:49.397Z,15.61
2016-06-14T02:59:49.963Z,15.54
2016-06-14T03:00:49.731Z,15.57
2016-06-14T03:01:49.563Z,15.59
2016-06-14T03:02:49.691Z,15.61
2016-06-14T03:03:49.757Z,15.61
2016-06-14T03:04:49.775Z,15.55
2016-06-14T03:05:49.809Z,15.57
2016-06-14T03:06:49.844Z,15.58
2016-06-14T03:07:49.879Z,15.68
2016-06-14T03:08:49.912Z,15.65
2016-06-14T03:09:49.946Z,15.65
2016-06-14T03:10:49.981Z,15.67
2016-06-14T03:11:50.046Z,15.61
2016-06-14T03:12:50.066Z,15.61
2016-06-14T03:13:50.100Z,15.58
2016-06-14T03:14:51.024Z,15.52
2016-06-14T03:15:50.183Z,15.59
2016-06-14T03:16:50.218Z,15.64
2016-06-14T03:17:50.253Z,15.59
2016-06-14T03:18:50.131Z,15.58
2016-06-14T03:19:50.321Z,15.72
2016-06-14T03:20:50.355Z,15.64
2016-06-14T03:21:50.390Z,15.72
2016-06-14T03:22:50.424Z,15.61
2016-06-14T03:24:04.884Z,15.61
2016-06-14T03:26:00.199Z,15.65
2016-06-14T03:27:00.217Z,15.61
2016-06-14T03:28:00.252Z,15.59
2016-06-14T03:29:00.287Z,15.58
2016-06-14T03:30:00.554Z,15.7
2016-06-14T03:31:00.355Z,15.68
2016-06-14T03:32:00.404Z,15.77
2016-06-14T03:33:00.439Z,15.68
2016-06-14T03:34:00.474Z,15.65
2016-06-14T03:35:00.367Z,15.77
2016-06-14T03:36:00.573Z,15.77
2016-06-14T03:37:00.592Z,15.8
2016-06-14T03:38:00.626Z,15.65
2016-06-14T03:39:00.661Z,15.79
2016-06-14T03:40:00.696Z,15.75
2016-06-14T03:41:00.730Z,15.75
2016-06-14T03:42:00.779Z,15.76
2016-06-14T03:43:00.797Z,15.83
2016-06-14T03:44:00.848Z,15.88
2016-06-14T03:45:00.883Z,15.98
2016-06-14T03:46:00.917Z,15.92
2016-06-14T03:47:00.951Z,15.98
2016-06-14T03:48:01.001Z,15.91
2016-06-14T03:49:01.035Z,15.76
2016-06-14T03:50:01.069Z,15.94
2016-06-14T03:51:01.104Z,15.86
2016-06-14T03:52:01.138Z,15.82
2016-06-14T03:53:01.172Z,15.95
2016-06-14T03:54:01.222Z,15.83
2016-06-14T03:55:01.242Z,15.82
2016-06-14T03:56:01.276Z,15.75
2016-06-14T03:57:01.325Z,15.77
2016-06-14T03:58:01.360Z,15.79
2016-06-14T03:59:01.394Z,15.77
2016-06-14T04:00:01.429Z,15.75
2016-06-14T04:01:01.682Z,15.68
2016-06-14T04:02:01.497Z,15.77
2016-06-14T04:03:01.547Z,15.68
2016-06-14T04:04:01.581Z,15.84
2016-06-14T04:05:01.616Z,15.79
2016-06-14T04:06:01.650Z,15.9
2016-06-14T04:07:01.700Z,15.8
2016-06-14T04:08:01.734Z,15.82
2016-06-14T04:09:01.597Z,15.86
2016-06-14T04:10:01.803Z,15.95
2016-06-14T04:11:01.837Z,15.91
2016-06-14T04:12:01.872Z,16.04
2016-06-14T04:13:01.906Z,16.09
2016-06-14T04:14:01.940Z,16
2016-06-14T04:15:02.021Z,16.1
2016-06-14T04:16:02.556Z,15.97
2016-06-14T04:17:02.059Z,16.05
2016-06-14T04:18:02.093Z,16.08
2016-06-14T04:19:02.143Z,16.04
2016-06-14T04:20:02.162Z,16.12
2016-06-14T04:21:02.197Z,16.1
2016-06-14T04:22:02.246Z,16
2016-06-14T04:23:02.281Z,16.1
2016-06-14T04:24:02.314Z,16.12
2016-06-14T04:25:02.349Z,15.95
2016-06-14T04:26:02.399Z,15.91
2016-06-14T04:27:02.277Z,15.88
2016-06-14T04:28:02.468Z,15.86
2016-06-14T04:29:02.503Z,15.77
2016-06-14T04:30:02.427Z,15.7
2016-06-14T04:31:02.977Z,15.57
2016-06-14T04:32:02.621Z,15.55
2016-06-14T04:33:02.656Z,15.54
2016-06-14T04:34:02.689Z,15.4
2016-06-14T04:35:02.724Z,15.35
2016-06-14T04:36:02.758Z,15.37
2016-06-14T04:37:02.792Z,15.36
2016-06-14T04:38:02.841Z,15.29
2016-06-14T04:39:02.877Z,15.36
2016-06-14T04:40:02.755Z,15.19
2016-06-14T04:41:02.945Z,15.25
2016-06-14T04:42:02.979Z,15.24
2016-06-14T04:43:03.014Z,15.33
2016-06-14T04:44:03.048Z,15.37
2016-06-14T04:45:03.238Z,15.28
2016-06-14T04:46:03.148Z,15.33
2016-06-14T04:47:03.213Z,15.42
2016-06-14T04:48:03.202Z,15.35
2016-06-14T04:49:03.251Z,15.39
2016-06-14T04:50:03.269Z,15.37
2016-06-14T04:51:03.304Z,15.37
2016-06-14T04:52:03.354Z,15.4
2016-06-14T04:53:03.404Z,15.42
2016-06-14T04:54:03.423Z,15.37
2016-06-14T04:55:03.457Z,15.37
2016-06-14T04:56:03.491Z,15.33
2016-06-14T04:57:03.541Z,15.33
2016-06-14T04:58:03.576Z,15.43
2016-06-14T04:59:03.594Z,15.24
2016-06-14T05:00:03.800Z,15.27
2016-06-14T05:01:04.022Z,15.25
2016-06-14T05:02:03.729Z,15.18
2016-06-14T05:03:03.748Z,15.03
2016-06-14T05:04:03.797Z,14.99
2016-06-14T05:05:03.832Z,15.11
2016-06-14T05:06:03.866Z,14.99
2016-06-14T05:07:03.744Z,15.04
2016-06-14T05:08:03.950Z,15.03
2016-06-14T05:09:03.984Z,15.07
2016-06-14T05:10:04.003Z,15.03
2016-06-14T05:11:04.037Z,15.1
2016-06-14T05:12:04.072Z,15.1
2016-06-14T05:13:04.122Z,15.22
2016-06-14T05:14:04.157Z,15.24
2016-06-14T05:15:04.191Z,15.17
2016-06-14T05:16:04.522Z,15.22
2016-06-14T05:17:04.259Z,15.25
2016-06-14T05:18:04.294Z,15.21
2016-06-14T05:19:04.343Z,15.25
2016-06-14T05:20:04.362Z,15.21
2016-06-14T05:21:04.412Z,15.37
2016-06-14T05:22:04.446Z,15.19
2016-06-14T05:23:04.480Z,15.18
2016-06-14T05:24:04.515Z,15.33
2016-06-14T05:25:04.550Z,15.25
2016-06-14T05:26:04.615Z,15.21
2016-06-14T05:27:04.634Z,15.29
2016-06-14T05:28:04.667Z,15.24
2016-06-14T05:29:04.703Z,15.21
2016-06-14T05:30:04.737Z,15.28
2016-06-14T05:31:04.787Z,15.37
2016-06-14T05:32:04.648Z,15.37
2016-06-14T05:33:04.840Z,15.36
2016-06-14T05:34:04.889Z,15.39
2016-06-14T05:35:04.924Z,15.42
2016-06-14T05:36:04.958Z,15.47
2016-06-14T05:37:04.993Z,15.52
2016-06-14T05:38:05.026Z,15.44
2016-06-14T05:39:05.062Z,15.58
2016-06-14T05:40:05.095Z,15.7
2016-06-14T05:41:05.145Z,15.64
2016-06-14T05:42:05.180Z,15.7
2016-06-14T05:43:05.042Z,15.61
2016-06-14T05:44:05.249Z,15.8
2016-06-14T05:45:05.283Z,15.79
2016-06-14T05:46:05.348Z,15.67
2016-06-14T05:47:05.242Z,15.77
2016-06-14T05:48:05.401Z,15.83
2016-06-14T05:49:05.435Z,15.95
2016-06-14T05:50:05.471Z,16.08
2016-06-14T05:51:05.504Z,16.05
2016-06-14T05:52:05.555Z,16.21
2016-06-14T05:53:05.573Z,16.33
2016-06-14T05:54:05.623Z,16.39
2016-06-14T05:55:05.657Z,16.41
2016-06-14T05:56:05.692Z,16.54
2016-06-14T05:57:05.726Z,16.66
2016-06-14T05:58:05.760Z,16.78
2016-06-14T05:59:05.810Z,16.86
2016-06-14T06:00:05.844Z,16.96
2016-06-14T06:01:06.504Z,16.84
2016-06-14T06:02:05.913Z,16.75
2016-06-14T06:03:05.963Z,16.66
2016-06-14T06:04:05.998Z,16.58
2016-06-14T06:05:06.032Z,16.83
2016-06-14T06:06:06.066Z,16.86
2016-06-14T06:07:06.101Z,16.86
2016-06-14T06:08:06.135Z,16.91
2016-06-14T06:09:06.185Z,16.87
2016-06-14T06:10:06.219Z,16.93
2016-06-14T06:11:06.253Z,16.87
2016-06-14T06:12:06.131Z,16.94
2016-06-14T06:13:06.322Z,16.91
2016-06-14T06:14:06.372Z,17.06
2016-06-14T06:15:06.406Z,17.15
2016-06-14T06:16:06.456Z,17.14
2016-06-14T06:17:06.491Z,17.36
2016-06-14T06:18:06.524Z,17.45
2016-06-14T06:19:06.560Z,17.71
2016-06-14T06:20:06.593Z,17.67
2016-06-14T06:21:06.627Z,17.68
2016-06-14T06:22:06.678Z,17.57
2016-06-14T06:23:06.712Z,17.52
2016-06-14T06:24:06.747Z,17.52
2016-06-14T06:25:06.796Z,17.39
2016-06-14T06:26:06.815Z,17.36
2016-06-14T06:27:06.865Z,17.31
2016-06-14T06:28:06.915Z,17.39
2016-06-14T06:29:06.934Z,17.31
2016-06-14T06:30:06.983Z,17.29
2016-06-14T06:31:07.034Z,17.16
2016-06-14T06:32:07.068Z,17.11
2016-06-14T06:33:07.103Z,17.06
2016-06-14T06:34:07.137Z,17.15
2016-06-14T06:35:07.015Z,17.15
2016-06-14T06:36:07.205Z,17.22
2016-06-14T06:37:07.271Z,17.14
2016-06-14T06:38:07.290Z,17.12
2016-06-14T06:39:07.324Z,17.06
2016-06-14T06:40:07.374Z,16.97
2016-06-14T06:41:07.408Z,16.78
2016-06-14T06:42:07.458Z,16.72
2016-06-14T06:43:07.477Z,16.76
2016-06-14T06:44:07.526Z,16.74
2016-06-14T06:45:07.404Z,16.75
2016-06-14T06:46:07.761Z,16.76
2016-06-14T06:47:07.711Z,16.75
2016-06-14T06:48:07.784Z,16.76
2016-06-14T06:49:07.857Z,16.66
2016-06-14T06:50:07.931Z,16.69
2016-06-14T06:51:07.989Z,16.74
2016-06-14T06:52:08.036Z,16.74
2016-06-14T06:53:08.101Z,16.75
2016-06-14T06:54:08.149Z,16.79
2016-06-14T06:55:08.213Z,16.71
2016-06-14T06:56:08.256Z,16.84
2016-06-14T06:57:08.311Z,16.84
2016-06-14T06:58:08.334Z,16.72
2016-06-14T06:59:08.374Z,16.68
2016-06-14T07:00:08.413Z,16.61
2016-06-14T07:01:09.169Z,16.61
2016-06-14T07:02:08.502Z,16.57
2016-06-14T07:03:08.539Z,16.6
2016-06-14T07:04:08.589Z,16.6
2016-06-14T07:05:08.627Z,16.47
2016-06-14T07:06:08.661Z,16.39
2016-06-14T07:07:08.696Z,16.43
2016-06-14T07:08:08.731Z,16.42
2016-06-14T07:09:08.782Z,16.38
2016-06-14T07:10:08.816Z,16.42
2016-06-14T07:11:08.695Z,16.51
2016-06-14T07:12:08.902Z,16.56
2016-06-14T07:13:08.920Z,16.53
2016-06-14T07:14:08.970Z,16.51
2016-06-14T07:15:09.021Z,16.57
2016-06-14T07:16:09.758Z,16.66
2016-06-14T07:17:09.090Z,16.76
2016-06-14T07:18:09.124Z,16.72
2016-06-14T07:19:09.158Z,16.71
2016-06-14T07:20:09.193Z,16.75
2016-06-14T07:21:09.227Z,16.68
2016-06-14T07:22:09.121Z,16.76
2016-06-14T07:23:09.312Z,16.86
2016-06-14T07:24:09.346Z,16.76
2016-06-14T07:25:09.380Z,16.78
2016-06-14T07:26:09.414Z,16.75
2016-06-14T07:27:09.464Z,16.96
2016-06-14T07:28:09.499Z,16.99
2016-06-14T07:29:09.533Z,16.81
2016-06-14T07:30:09.567Z,16.75
2016-06-14T07:31:09.617Z,16.69
2016-06-14T07:32:09.651Z,16.65
2016-06-14T07:33:09.686Z,16.74
2016-06-14T07:34:09.721Z,16.66
2016-06-14T07:35:09.770Z,16.74
2016-06-14T07:36:09.805Z,16.76
2016-06-14T07:37:09.870Z,16.94
2016-06-14T07:38:09.888Z,16.79
2016-06-14T07:39:09.922Z,16.83
2016-06-14T07:40:09.957Z,16.78
2016-06-14T07:41:09.992Z,16.91
2016-06-14T07:42:10.026Z,16.9
2016-06-14T07:43:10.076Z,16.9
2016-06-14T07:44:10.110Z,16.97
2016-06-14T07:45:10.144Z,16.93
2016-06-14T07:46:10.070Z,16.97
2016-06-14T07:47:10.213Z,16.94
2016-06-14T07:48:10.263Z,17.12
2016-06-14T07:49:10.298Z,17.12
2016-06-14T07:50:10.332Z,17.14
2016-06-14T07:51:10.381Z,16.94
2016-06-14T07:52:10.416Z,16.79
2016-06-14T07:53:10.466Z,16.84
2016-06-14T07:54:10.485Z,16.71
2016-06-14T07:55:10.535Z,16.57
2016-06-14T07:56:10.569Z,16.51
2016-06-14T07:57:10.603Z,16.56
2016-06-14T07:58:10.638Z,16.78
2016-06-14T07:59:10.672Z,17.06
2016-06-14T08:00:10.722Z,17.24
2016-06-14T08:01:10.757Z,17.38
2016-06-14T08:02:10.806Z,17.57
2016-06-14T08:03:10.841Z,17.51
2016-06-14T08:04:10.875Z,17.86
2016-06-14T08:05:10.909Z,17.74
2016-06-14T08:06:10.944Z,17.86
2016-06-14T08:07:10.993Z,17.8
2016-06-14T08:08:10.872Z,17.68
2016-06-14T08:09:11.062Z,17.65
2016-06-14T08:10:10.956Z,17.52
2016-06-14T08:11:11.131Z,17.49
2016-06-14T08:12:11.181Z,17.38
2016-06-14T08:13:11.230Z,17.24
2016-06-14T08:14:11.265Z,17.2
2016-06-14T08:15:11.143Z,17.22
2016-06-14T08:16:11.897Z,16.99
2016-06-14T08:17:11.227Z,16.81
2016-06-14T08:18:11.261Z,16.84
2016-06-14T08:19:11.452Z,16.78
2016-06-14T08:20:11.487Z,16.58
2016-06-14T08:21:11.521Z,16.58
2016-06-14T08:22:11.571Z,16.57
2016-06-14T08:23:11.746Z,16.56
2016-06-14T08:24:11.671Z,16.58
2016-06-14T08:25:11.675Z,16.6
2016-06-14T08:26:11.708Z,16.54
2016-06-14T08:27:11.601Z,16.53
2016-06-14T08:28:11.792Z,16.57
2016-06-14T08:29:11.827Z,16.64
2016-06-14T08:30:11.877Z,16.66
2016-06-14T08:31:12.770Z,16.76
2016-06-14T08:32:11.946Z,16.83
2016-06-14T08:33:11.839Z,16.81
2016-06-14T08:34:12.013Z,16.74
2016-06-14T08:35:12.064Z,16.81
2016-06-14T08:36:12.098Z,16.94
2016-06-14T08:37:12.132Z,16.87
2016-06-14T08:38:12.182Z,16.86
2016-06-14T08:39:12.217Z,16.9
2016-06-14T08:40:12.251Z,16.79
2016-06-14T08:41:12.285Z,16.68
2016-06-14T08:42:12.180Z,16.61
2016-06-14T08:43:12.355Z,16.68
2016-06-14T08:44:12.419Z,16.54
2016-06-14T08:45:12.439Z,16.81
2016-06-14T08:46:12.628Z,16.86
2016-06-14T08:47:12.523Z,16.93
2016-06-14T08:48:12.557Z,17.08
2016-06-14T08:49:12.591Z,17.16
2016-06-14T08:50:12.641Z,17.33
2016-06-14T08:51:12.661Z,17.59
2016-06-14T08:52:12.694Z,17.72
2016-06-14T08:53:12.744Z,17.98
2016-06-14T08:54:12.778Z,18.05
2016-06-14T08:55:12.813Z,18.13
2016-06-14T08:56:12.862Z,18.03
2016-06-14T08:57:12.898Z,18.05
2016-06-14T08:58:12.947Z,18.08
2016-06-14T08:59:12.824Z,18.25
2016-06-14T09:00:13.078Z,18.13
2016-06-14T09:01:13.081Z,18.16
2016-06-14T09:02:13.084Z,18.03
2016-06-14T09:03:13.134Z,18.07
2016-06-14T09:04:13.184Z,17.98
2016-06-14T09:05:13.047Z,18.15
2016-06-14T09:06:13.237Z,18.11
2016-06-14T09:07:13.271Z,18.08
2016-06-14T09:08:13.307Z,17.95
2016-06-14T09:09:13.356Z,17.76
2016-06-14T09:10:13.390Z,17.79
2016-06-14T09:11:13.440Z,17.68
2016-06-14T09:12:13.474Z,17.64
2016-06-14T09:13:13.509Z,17.49
2016-06-14T09:14:13.559Z,17.34
2016-06-14T09:15:13.593Z,17.38
2016-06-14T09:16:14.096Z,17.34
2016-06-14T09:17:13.662Z,17.29
2016-06-14T09:18:13.712Z,17.31
2016-06-14T09:19:13.746Z,17.41
2016-06-14T09:20:13.796Z,17.34
2016-06-14T09:21:13.815Z,17.41
2016-06-14T09:22:13.864Z,17.74
2016-06-14T09:23:13.743Z,17.89
2016-06-14T09:24:13.934Z,17.92
2016-06-14T09:25:13.968Z,17.95
2016-06-14T09:26:14.033Z,18
2016-06-14T09:27:14.052Z,18.15
2016-06-14T09:28:14.102Z,18.23
2016-06-14T09:29:14.136Z,18.25
2016-06-14T09:30:14.170Z,18.35
2016-06-14T09:31:14.939Z,18.4
2016-06-14T09:32:15.223Z,18.19
2016-06-14T09:33:14.289Z,18.11
2016-06-14T09:34:14.324Z,18.15
2016-06-14T09:35:14.373Z,18.1
2016-06-14T09:36:14.407Z,18.08
2016-06-14T09:37:14.458Z,18.15
2016-06-14T09:38:14.477Z,18.08
2016-06-14T09:39:14.527Z,18.26
2016-06-14T09:40:14.561Z,18.47
2016-06-14T09:41:14.594Z,18.58
2016-06-14T09:42:14.645Z,18.6
2016-06-14T09:43:14.679Z,18.35
2016-06-14T09:44:14.713Z,18.19
2016-06-14T09:45:14.764Z,18.18
2016-06-14T09:46:14.923Z,18.18
2016-06-14T09:47:14.833Z,18.23
2016-06-14T09:48:14.866Z,18.28
2016-06-14T09:49:14.916Z,18.23
2016-06-14T09:50:14.951Z,18.33
2016-06-14T09:51:14.984Z,18.47
2016-06-14T09:52:15.035Z,18.43
2016-06-14T09:53:15.069Z,18.58
2016-06-14T09:54:15.119Z,18.6
2016-06-14T09:55:15.154Z,18.7
2016-06-14T09:56:15.204Z,18.74
2016-06-14T09:57:15.222Z,18.73
2016-06-14T09:58:15.256Z,18.81
2016-06-14T09:59:15.306Z,19.15
2016-06-14T10:00:15.341Z,19.3
2016-06-14T10:01:15.390Z,19.59
2016-06-14T10:02:15.285Z,19.56
2016-06-14T10:03:15.460Z,19.19
2016-06-14T10:04:15.509Z,19.02
2016-06-14T10:05:15.544Z,19.18
2016-06-14T10:06:15.594Z,19.24
2016-06-14T10:07:15.628Z,19.22
2016-06-14T10:08:15.662Z,19.3
2016-06-14T10:09:15.697Z,19.27
2016-06-14T10:10:15.747Z,19.31
2016-06-14T10:11:15.781Z,19.22
2016-06-14T10:12:15.831Z,19.19
2016-06-14T10:13:15.865Z,19
2016-06-14T10:14:15.915Z,18.62
2016-06-14T10:15:15.949Z,18.38
2016-06-14T10:16:15.983Z,18.35
2016-06-14T10:17:16.393Z,18.4
2016-06-14T10:18:15.912Z,18.45
2016-06-14T10:19:16.103Z,18.53
2016-06-14T10:20:16.152Z,18.77
2016-06-14T10:21:16.187Z,18.7
2016-06-14T10:22:16.221Z,18.71
2016-06-14T10:23:16.255Z,18.68
2016-06-14T10:24:16.305Z,18.53
2016-06-14T10:25:16.355Z,18.52
2016-06-14T10:26:16.374Z,18.26
2016-06-14T10:27:16.424Z,18.28
2016-06-14T10:28:16.474Z,18.23
2016-06-14T10:29:16.492Z,17.9
2016-06-14T10:30:16.542Z,17.72
2016-06-14T10:31:17.092Z,17.45
2016-06-14T10:32:16.314Z,17.36
2016-06-14T10:33:16.661Z,17.36
2016-06-14T10:34:16.696Z,17.16
2016-06-14T10:35:16.744Z,17.19
2016-06-14T10:36:16.780Z,17.24
2016-06-14T10:37:16.814Z,17.29
2016-06-14T10:38:16.864Z,17.36
2016-06-14T10:39:16.898Z,17.38
2016-06-14T10:40:16.933Z,17.51
2016-06-14T10:41:16.982Z,17.72
2016-06-14T10:42:17.016Z,18.08
2016-06-14T10:43:17.066Z,18.38
2016-06-14T10:44:17.102Z,18.58
2016-06-14T10:45:17.120Z,18.75
2016-06-14T10:46:17.013Z,18.92
2016-06-14T10:47:17.204Z,19.4
2016-06-14T10:48:17.238Z,19.79
2016-06-14T10:49:17.272Z,20.09
2016-06-14T10:50:17.323Z,20.26
2016-06-14T10:51:17.357Z,20.31
2016-06-14T10:52:17.407Z,20.22
2016-06-14T10:53:17.441Z,20.14
2016-06-14T10:54:17.320Z,19.96
2016-06-14T10:55:17.541Z,19.99
2016-06-14T10:56:17.559Z,19.91
2016-06-14T10:57:17.610Z,19.82
2016-06-14T10:58:17.644Z,19.82
2016-06-14T10:59:17.709Z,19.85
2016-06-14T11:00:17.712Z,19.85
2016-06-14T11:01:18.263Z,19.73
2016-06-14T11:02:17.969Z,19.85
2016-06-14T11:03:17.863Z,19.82
2016-06-14T11:04:17.913Z,20.16
2016-06-14T11:05:17.931Z,20.92
2016-06-14T11:06:17.965Z,20.96
2016-06-14T11:07:18.015Z,21.55
2016-06-14T11:08:18.050Z,22.1
2016-06-14T11:09:18.099Z,22.1
2016-06-14T11:10:18.134Z,22.1
2016-06-14T11:11:18.168Z,22.18
2016-06-14T11:12:18.218Z,21.75
2016-06-14T11:13:18.268Z,21.36
2016-06-14T11:14:18.302Z,20.96
2016-06-14T11:15:18.353Z,20.74
2016-06-14T11:16:18.575Z,20.6
2016-06-14T11:17:18.452Z,20.5
2016-06-14T11:18:18.471Z,20.07
2016-06-14T11:19:18.521Z,19.73
2016-06-14T11:20:18.415Z,19.56
2016-06-14T11:21:18.606Z,19.48
2016-06-14T11:22:18.639Z,19.4
2016-06-14T11:23:18.706Z,20.24
2016-06-14T11:24:18.740Z,21.2
2016-06-14T11:25:18.773Z,21.98
2016-06-14T11:26:18.652Z,22.91
2016-06-14T11:27:18.874Z,23.25
2016-06-14T11:28:18.892Z,23.91
2016-06-14T11:29:18.927Z,23.74
2016-06-14T11:30:18.977Z,23.32
2016-06-14T11:31:19.027Z,22.57
2016-06-14T11:32:19.014Z,22.02
2016-06-14T11:33:19.111Z,21.57
2016-06-14T11:34:19.161Z,21.18
2016-06-14T11:35:19.211Z,20.96
2016-06-14T11:36:19.245Z,20.51
2016-06-14T11:37:19.296Z,20.48
2016-06-14T11:38:19.346Z,20.34
2016-06-14T11:39:19.380Z,20.24
2016-06-14T11:40:19.430Z,20.36
2016-06-14T11:41:19.479Z,20.26
2016-06-14T11:42:19.514Z,20.14
2016-06-14T11:43:19.548Z,20.22
2016-06-14T11:44:19.598Z,20.41
2016-06-14T11:45:19.632Z,20.47
2016-06-14T11:46:21.104Z,20.55
2016-06-14T11:47:22.763Z,20.56
2016-06-14T11:48:20.563Z,20.48
2016-06-14T11:49:21.660Z,20.6
2016-06-14T11:50:19.851Z,20.78
2016-06-14T11:51:19.901Z,20.87
2016-06-14T11:52:19.936Z,20.95
2016-06-14T11:53:19.985Z,20.87
2016-06-14T11:54:20.019Z,20.93
2016-06-14T11:55:20.054Z,20.93
2016-06-14T11:56:20.104Z,21.07
2016-06-14T11:57:20.137Z,20.96
2016-06-14T11:58:20.204Z,20.97
2016-06-14T11:59:20.238Z,20.75
2016-06-14T12:00:20.272Z,20.95
2016-06-14T12:01:21.119Z,20.84
2016-06-14T12:02:20.403Z,20.77
2016-06-14T12:03:20.391Z,20.6
2016-06-14T12:04:20.441Z,20.55
2016-06-14T12:05:20.491Z,20.44
2016-06-14T12:06:20.540Z,20.32
2016-06-14T12:07:20.559Z,20.39
2016-06-14T12:08:20.610Z,20.52
2016-06-14T12:09:20.644Z,20.56
2016-06-14T12:10:20.537Z,20.52
2016-06-14T12:11:20.744Z,20.85
2016-06-14T12:12:20.778Z,20.82
2016-06-14T12:13:20.812Z,20.88
2016-06-14T12:14:20.862Z,21.07
2016-06-14T12:15:20.897Z,21.35
2016-06-14T12:16:22.227Z,21.36
2016-06-14T12:17:20.997Z,21.48
2016-06-14T12:18:21.030Z,21.29
2016-06-14T12:19:21.097Z,20.95
2016-06-14T12:20:21.114Z,20.78
2016-06-14T12:21:21.150Z,20.58
2016-06-14T12:22:21.043Z,20.55
2016-06-14T12:23:21.234Z,20.55
2016-06-14T12:24:21.267Z,20.39
2016-06-14T12:25:21.333Z,20.34
2016-06-14T12:26:21.369Z,20.5
2016-06-14T12:27:21.402Z,20.4
2016-06-14T12:28:21.452Z,20.62
2016-06-14T12:29:21.486Z,20.51
2016-06-14T12:30:21.520Z,20.4
2016-06-14T12:31:21.570Z,20.52
2016-06-14T12:32:21.308Z,20.56
2016-06-14T12:33:21.640Z,20.31
2016-06-14T12:34:21.690Z,20.43
2016-06-14T12:35:21.739Z,20.36
2016-06-14T12:36:21.758Z,20.34
2016-06-14T12:37:21.808Z,20.44
2016-06-14T12:38:21.859Z,20.52
2016-06-14T12:39:21.892Z,20.69
2016-06-14T12:40:21.942Z,20.66
2016-06-14T12:41:21.977Z,20.63
2016-06-14T12:42:22.026Z,20.56
2016-06-14T12:43:22.060Z,20.4
2016-06-14T12:44:22.096Z,20.32
2016-06-14T12:45:22.145Z,20.4
2016-06-14T12:46:22.180Z,20.41
2016-06-14T12:47:22.073Z,20.36
2016-06-14T12:48:22.264Z,20.32
2016-06-14T12:49:22.299Z,20.29
2016-06-14T12:50:22.348Z,20.29
2016-06-14T12:51:22.383Z,20.32
2016-06-14T12:52:22.432Z,20.36
2016-06-14T12:53:22.466Z,20.55
2016-06-14T12:54:22.516Z,20.62
2016-06-14T12:55:22.551Z,20.56
2016-06-14T12:56:22.601Z,20.37
2016-06-14T12:57:22.636Z,20.51
2016-06-14T12:58:22.670Z,20.62
2016-06-14T12:59:22.720Z,20.82